createdAt,value
2022-10-21T00:02:09.850Z,7.63
2022-10-21T00:04:41.667Z,7.30
2022-10-21T00:07:13.530Z,10.27
2022-10-21T00:09:45.229Z,7.80
2022-10-21T00:12:16.979Z,9.20
2022-10-21T00:14:49.999Z,9.03
2022-10-21T00:17:22.460Z,12.60
2022-10-21T00:19:54.177Z,12.17
2022-10-21T00:22:25.896Z,13.33
2022-10-21T00:24:57.828Z,10.30
2022-10-21T00:27:29.808Z,11.80
2022-10-21T00:30:02.106Z,7.30
2022-10-21T00:32:34.236Z,7.43
2022-10-21T00:35:06.324Z,7.50
2022-10-21T00:37:38.382Z,6.13
2022-10-21T00:40:10.718Z,11.07
2022-10-21T00:42:46.396Z,9.27
2022-10-21T00:45:22.786Z,10.03
2022-10-21T00:47:58.815Z,9.20
2022-10-21T00:50:45.187Z,7.10
2022-10-21T00:53:18.387Z,8.63
2022-10-21T00:55:58.205Z,8.33
2022-10-21T00:58:32.292Z,7.97
2022-10-21T01:01:06.148Z,8.83
2022-10-21T01:03:37.949Z,11.23
2022-10-21T01:06:12.637Z,8.53
2022-10-21T01:08:44.492Z,7.50
2022-10-21T01:11:18.520Z,9.40
2022-10-21T01:13:53.327Z,10.50
2022-10-21T01:16:41.221Z,8.07
2022-10-21T01:19:42.408Z,14.53
2022-10-21T01:22:38.560Z,8.70
2022-10-21T01:25:33.480Z,9.70
2022-10-21T01:28:39.840Z,8.77
2022-10-21T01:31:25.429Z,11.43
2022-10-21T01:34:11.047Z,12.97
2022-10-21T01:37:15.223Z,10.17
2022-10-21T01:39:55.176Z,10.70
2022-10-21T01:42:39.882Z,12.87
2022-10-21T01:45:25.074Z,13.27
2022-10-21T01:48:03.013Z,9.83
2022-10-21T01:50:55.258Z,9.50
2022-10-21T01:53:30.590Z,10.43
2022-10-21T01:56:03.753Z,9.27
2022-10-21T01:58:39.292Z,7.93
2022-10-21T02:01:12.885Z,7.00
2022-10-21T02:03:48.664Z,11.90
2022-10-21T02:06:20.585Z,10.00
2022-10-21T02:08:52.796Z,15.10
2022-10-21T02:11:25.166Z,9.10
2022-10-21T02:14:02.628Z,9.33
2022-10-21T02:16:38.737Z,7.63
2022-10-21T02:19:19.893Z,10.80
2022-10-21T02:21:53.457Z,10.67
2022-10-21T02:24:52.449Z,9.03
2022-10-21T02:27:24.859Z,7.70
2022-10-21T02:29:59.758Z,7.90
2022-10-21T02:32:42.365Z,11.27
2022-10-21T02:35:20.489Z,11.40
2022-10-21T02:38:05.960Z,7.60
2022-10-21T02:40:44.328Z,7.23
2022-10-21T02:43:24.642Z,7.47
2022-10-21T02:46:01.634Z,7.63
2022-10-21T02:48:34.659Z,7.43
2022-10-21T02:51:07.945Z,10.00
2022-10-21T02:53:39.782Z,8.10
2022-10-21T02:56:11.612Z,8.63
2022-10-21T02:58:43.501Z,8.20
2022-10-21T03:01:15.490Z,8.50
2022-10-21T03:03:47.443Z,8.80
2022-10-21T03:06:19.353Z,7.20
2022-10-21T03:08:51.166Z,8.23
2022-10-21T03:11:23.044Z,7.43
2022-10-21T03:13:54.786Z,8.53
2022-10-21T03:16:26.511Z,8.13
2022-10-21T03:18:58.311Z,7.93
2022-10-21T03:21:30.081Z,6.73
2022-10-21T03:24:02.188Z,8.03
2022-10-21T03:26:33.930Z,8.17
2022-10-21T03:29:05.654Z,9.33
2022-10-21T03:31:37.390Z,7.13
2022-10-21T03:34:09.138Z,8.13
2022-10-21T03:36:40.884Z,6.57
2022-10-21T03:39:12.919Z,7.53
2022-10-21T03:41:44.643Z,10.10
2022-10-21T03:44:16.368Z,8.10
2022-10-21T03:46:48.091Z,9.30
2022-10-21T03:49:21.304Z,8.30
2022-10-21T03:51:53.580Z,8.83
2022-10-21T03:54:25.341Z,11.53
2022-10-21T03:56:57.352Z,8.03
2022-10-21T03:59:29.165Z,9.20
2022-10-21T04:02:01.122Z,10.27
2022-10-21T04:04:32.975Z,8.13
2022-10-21T04:07:04.832Z,11.93
2022-10-21T04:09:36.553Z,10.97
2022-10-21T04:12:08.303Z,9.40
2022-10-21T04:14:40.087Z,10.83
2022-10-21T04:17:12.996Z,9.47
2022-10-21T04:19:44.748Z,7.67
2022-10-21T04:22:16.476Z,9.83
2022-10-21T04:24:48.225Z,12.07
2022-10-21T04:27:19.959Z,8.73
2022-10-21T04:29:51.729Z,9.07
2022-10-21T04:32:23.502Z,7.90
2022-10-21T04:34:55.286Z,11.40
2022-10-21T04:37:27.030Z,10.20
2022-10-21T04:39:58.739Z,9.97
2022-10-21T04:42:30.462Z,12.93
2022-10-21T04:45:02.458Z,9.50
2022-10-21T04:47:34.201Z,8.70
2022-10-21T04:50:06.206Z,7.50
2022-10-21T04:52:38.298Z,7.50
2022-10-21T04:55:10.453Z,7.23
2022-10-21T04:57:42.767Z,10.63
2022-10-21T05:00:14.817Z,11.43
2022-10-21T05:02:46.533Z,9.87
2022-10-21T05:05:18.277Z,13.10
2022-10-21T05:07:50.052Z,7.73
2022-10-21T05:10:22.423Z,12.10
2022-10-21T05:12:54.182Z,13.73
2022-10-21T05:15:26.729Z,11.23
2022-10-21T05:17:58.467Z,7.97
2022-10-21T05:20:30.348Z,10.40
2022-10-21T05:23:02.064Z,8.67
2022-10-21T05:25:34.518Z,6.50
2022-10-21T05:28:06.337Z,11.47
2022-10-21T05:30:38.287Z,10.07
2022-10-21T05:33:10.543Z,10.57
2022-10-21T05:35:42.643Z,10.77
2022-10-21T05:38:14.366Z,8.23
2022-10-21T05:40:46.117Z,9.33
2022-10-21T05:43:17.844Z,10.83
2022-10-21T05:45:49.590Z,7.63
2022-10-21T05:48:21.498Z,9.60
2022-10-21T05:50:54.674Z,10.53
2022-10-21T05:53:26.661Z,9.50
2022-10-21T05:56:02.859Z,9.37
2022-10-21T05:58:35.607Z,7.27
2022-10-21T06:01:07.503Z,7.67
2022-10-21T06:03:39.304Z,6.33
2022-10-21T06:06:11.255Z,8.77
2022-10-21T06:08:43.055Z,7.07
2022-10-21T06:11:17.498Z,12.43
2022-10-21T06:13:49.285Z,7.30
2022-10-21T06:16:21.021Z,9.77
2022-10-21T06:18:52.841Z,9.50
2022-10-21T06:21:24.553Z,8.33
2022-10-21T06:23:56.343Z,7.17
2022-10-21T06:26:29.982Z,10.10
2022-10-21T06:29:02.770Z,13.70
2022-10-21T06:31:34.533Z,14.10
2022-10-21T06:34:06.275Z,9.23
2022-10-21T06:36:41.071Z,11.40
2022-10-21T06:39:12.783Z,9.73
2022-10-21T06:41:44.522Z,10.73
2022-10-21T06:44:20.840Z,8.87
2022-10-21T06:46:54.087Z,13.97
2022-10-21T06:49:25.847Z,9.20
2022-10-21T06:51:57.581Z,9.60
2022-10-21T06:54:29.757Z,8.33
2022-10-21T06:57:01.483Z,9.70
2022-10-21T06:59:33.314Z,10.43
2022-10-21T07:02:05.076Z,10.67
2022-10-21T07:04:36.792Z,6.90
2022-10-21T07:07:08.518Z,7.10
2022-10-21T07:09:40.314Z,10.23
2022-10-21T07:12:12.164Z,8.77
2022-10-21T07:14:43.879Z,16.20
2022-10-21T07:17:15.892Z,10.57
2022-10-21T07:19:47.606Z,12.20
2022-10-21T07:22:19.474Z,9.40
2022-10-21T07:24:51.245Z,15.03
2022-10-21T07:27:23.007Z,10.97
2022-10-21T07:29:54.776Z,10.20
2022-10-21T07:32:26.520Z,8.37
2022-10-21T07:34:58.277Z,12.70
2022-10-21T07:37:29.992Z,8.83
2022-10-21T07:40:01.842Z,11.43
2022-10-21T07:42:33.652Z,11.03
2022-10-21T07:45:05.731Z,8.97
2022-10-21T07:47:37.827Z,11.13
2022-10-21T07:50:10.047Z,11.53
2022-10-21T07:52:51.885Z,7.27
2022-10-21T07:55:32.403Z,14.13
2022-10-21T07:58:05.072Z,12.70
2022-10-21T08:00:36.901Z,9.87
2022-10-21T08:03:11.093Z,7.43
2022-10-21T08:05:42.898Z,8.70
2022-10-21T08:08:14.644Z,12.00
2022-10-21T08:10:46.397Z,13.13
2022-10-21T08:13:19.053Z,6.60
2022-10-21T08:15:53.216Z,11.13
2022-10-21T08:18:26.228Z,9.43
2022-10-21T08:20:57.975Z,11.47
2022-10-21T08:23:29.710Z,13.47
2022-10-21T08:26:01.580Z,8.23
2022-10-21T08:28:33.325Z,11.73
2022-10-21T08:31:11.244Z,9.83
2022-10-21T08:33:43.562Z,10.50
2022-10-21T08:36:18.030Z,10.13
2022-10-21T08:38:49.961Z,7.17
2022-10-21T08:41:30.574Z,11.90
2022-10-21T08:44:11.321Z,10.30
2022-10-21T08:46:49.619Z,10.07
2022-10-21T08:49:52.385Z,9.33
2022-10-21T08:52:38.791Z,6.43
2022-10-21T08:55:33.022Z,9.20
2022-10-21T08:58:06.052Z,5.80
2022-10-21T09:00:47.966Z,6.27
2022-10-21T09:03:43.608Z,8.63
2022-10-21T09:06:30.255Z,8.77
2022-10-21T09:09:32.489Z,6.93
2022-10-21T09:12:27.022Z,10.23
2022-10-21T09:15:17.455Z,7.17
2022-10-21T09:17:58.022Z,12.33
2022-10-21T09:20:50.144Z,7.00
2022-10-21T09:23:40.165Z,8.00
2022-10-21T09:26:26.585Z,6.40
2022-10-21T09:29:18.757Z,8.73
2022-10-21T09:31:56.071Z,9.10
2022-10-21T09:34:27.949Z,5.93
2022-10-21T09:37:01.132Z,10.43
2022-10-21T09:39:48.505Z,6.13
2022-10-21T09:42:42.358Z,5.57
2022-10-21T09:45:36.833Z,7.17
2022-10-21T09:48:17.794Z,10.00
2022-10-21T09:51:09.881Z,5.27
2022-10-21T09:53:54.109Z,6.90
2022-10-21T09:56:35.818Z,6.33
2022-10-21T09:59:11.608Z,17.63
2022-10-21T10:01:44.395Z,6.10
2022-10-21T10:04:29.030Z,5.33
2022-10-21T10:07:22.023Z,7.97
2022-10-21T10:09:53.871Z,5.73
2022-10-21T10:12:27.298Z,6.83
2022-10-21T10:15:26.885Z,6.10
2022-10-21T10:18:01.548Z,5.90
2022-10-21T10:20:33.297Z,7.90
2022-10-21T10:23:04.994Z,7.67
2022-10-21T10:25:39.332Z,5.50
2022-10-21T10:28:11.028Z,16.00
2022-10-21T10:30:42.717Z,9.77
2022-10-21T10:33:31.347Z,5.87
2022-10-21T10:36:09.353Z,8.83
2022-10-21T10:38:45.104Z,5.83
2022-10-21T10:41:18.411Z,8.07
2022-10-21T10:43:55.118Z,5.30
2022-10-21T10:46:34.801Z,6.97
2022-10-21T10:49:15.689Z,8.00
2022-10-21T10:52:07.320Z,7.40
2022-10-21T10:54:40.713Z,5.40
2022-10-21T10:57:20.620Z,6.03
2022-10-21T10:59:56.893Z,5.03
2022-10-21T11:02:43.602Z,6.43
2022-10-21T11:05:24.649Z,6.90
2022-10-21T11:08:00.742Z,6.90
2022-10-21T11:10:44.837Z,7.67
2022-10-21T11:13:21.782Z,8.00
2022-10-21T11:16:24.487Z,6.07
2022-10-21T11:18:59.065Z,9.33
2022-10-21T11:21:49.513Z,9.53
2022-10-21T11:24:53.802Z,7.00
2022-10-21T11:27:53.853Z,11.67
2022-10-21T11:30:49.586Z,7.97
2022-10-21T11:33:49.773Z,9.07
2022-10-21T11:36:39.987Z,8.10
2022-10-21T11:39:43.002Z,7.00
2022-10-21T11:42:26.808Z,7.47
2022-10-21T11:45:21.884Z,10.53
2022-10-21T11:48:00.585Z,11.07
2022-10-21T11:50:59.521Z,8.37
2022-10-21T11:54:10.728Z,8.90
2022-10-21T11:56:59.805Z,8.67
2022-10-21T11:59:34.385Z,6.57
2022-10-21T12:02:17.605Z,6.40
2022-10-21T12:04:49.272Z,6.77
2022-10-21T12:07:46.699Z,7.87
2022-10-21T12:10:36.811Z,7.77
2022-10-21T12:13:23.036Z,5.70
2022-10-21T12:15:59.109Z,7.70
2022-10-21T12:18:31.226Z,6.20
2022-10-21T12:21:03.280Z,7.40
2022-10-21T12:23:35.205Z,7.60
2022-10-21T12:26:23.746Z,13.23
2022-10-21T12:28:59.062Z,6.90
2022-10-21T12:31:53.825Z,7.97
2022-10-21T12:34:25.790Z,9.33
2022-10-21T12:36:57.844Z,7.27
2022-10-21T12:39:35.637Z,9.87
2022-10-21T12:42:15.917Z,9.37
2022-10-21T12:44:52.367Z,8.60
2022-10-21T12:47:25.975Z,9.43
2022-10-21T12:50:26.086Z,8.43
2022-10-21T12:53:04.052Z,8.23
2022-10-21T12:55:41.016Z,6.40
2022-10-21T12:58:36.711Z,6.07
2022-10-21T13:01:34.491Z,6.77
2022-10-21T13:04:32.217Z,7.30
2022-10-21T13:07:15.874Z,6.13
2022-10-21T13:09:50.863Z,6.70
2022-10-21T13:12:25.485Z,14.40
2022-10-21T13:15:05.517Z,7.03
2022-10-21T13:17:53.654Z,6.00
2022-10-21T13:20:25.400Z,7.23
2022-10-21T13:23:31.784Z,6.57
2022-10-21T13:26:14.117Z,7.63
2022-10-21T13:29:01.821Z,5.90
2022-10-21T13:31:34.104Z,10.77
2022-10-21T13:34:06.530Z,8.13
2022-10-21T13:36:42.903Z,6.97
2022-10-21T13:39:41.789Z,8.90
2022-10-21T13:42:17.303Z,6.23
2022-10-21T13:45:07.217Z,6.77
2022-10-21T13:47:39.338Z,10.53
2022-10-21T13:50:25.986Z,7.23
2022-10-21T13:52:58.647Z,8.10
2022-10-21T13:55:30.400Z,10.10
2022-10-21T13:58:02.184Z,7.60
2022-10-21T14:00:33.916Z,6.03
2022-10-21T14:03:06.257Z,10.60
2022-10-21T14:05:46.928Z,6.53
2022-10-21T14:08:43.435Z,8.97
2022-10-21T14:11:20.139Z,6.73
2022-10-21T14:13:52.043Z,6.10
2022-10-21T14:16:37.492Z,6.53
2022-10-21T14:19:22.560Z,10.50
2022-10-21T14:21:57.295Z,9.77
2022-10-21T14:24:47.735Z,9.30
2022-10-21T14:27:33.279Z,11.67
2022-10-21T14:30:07.396Z,6.93
2022-10-21T14:32:39.442Z,8.23
2022-10-21T14:35:11.346Z,6.20
2022-10-21T14:37:52.290Z,9.53
2022-10-21T14:40:32.050Z,6.07
2022-10-21T14:43:13.383Z,6.83
2022-10-21T14:45:53.348Z,9.93
2022-10-21T14:48:34.326Z,10.13
2022-10-21T14:51:15.305Z,9.87
2022-10-21T14:53:54.843Z,9.77
2022-10-21T14:56:33.991Z,15.23
2022-10-21T14:59:28.476Z,8.90
2022-10-21T15:02:01.115Z,7.90
2022-10-21T15:04:53.909Z,6.80
2022-10-21T15:07:39.616Z,8.73
2022-10-21T15:10:20.622Z,8.40
2022-10-21T15:12:53.444Z,7.83
2022-10-21T15:15:40.516Z,8.03
2022-10-21T15:18:26.002Z,11.23
2022-10-21T15:21:02.406Z,10.33
2022-10-21T15:23:35.905Z,9.30
2022-10-21T15:26:20.980Z,7.50
2022-10-21T15:28:54.139Z,6.63
2022-10-21T15:31:28.769Z,12.00
2022-10-21T15:34:00.481Z,9.70
2022-10-21T15:36:32.245Z,9.33
2022-10-21T15:39:06.784Z,8.77
2022-10-21T15:41:41.271Z,7.27
2022-10-21T15:44:26.640Z,10.53
2022-10-21T15:47:01.225Z,7.07
2022-10-21T15:49:36.497Z,6.50
2022-10-21T15:52:08.773Z,7.13
2022-10-21T15:54:40.806Z,6.30
2022-10-21T15:57:20.953Z,7.27
2022-10-21T15:59:52.720Z,9.30
2022-10-21T16:02:24.516Z,7.20
2022-10-21T16:04:56.289Z,7.80
2022-10-21T16:07:36.922Z,8.73
2022-10-21T16:10:22.238Z,9.10
2022-10-21T16:12:54.985Z,7.43
2022-10-21T16:15:26.893Z,8.30
2022-10-21T16:17:59.061Z,5.93
2022-10-21T16:20:32.353Z,12.93
2022-10-21T16:23:04.134Z,10.50
2022-10-21T16:25:35.877Z,6.90
2022-10-21T16:28:07.894Z,7.67
2022-10-21T16:30:39.813Z,9.27
2022-10-21T16:33:11.620Z,8.27
2022-10-21T16:35:48.466Z,8.93
2022-10-21T16:40:56.794Z,10.33
2022-10-21T16:43:28.479Z,8.07
2022-10-21T16:46:00.189Z,13.83
2022-10-21T16:48:32.014Z,8.70
2022-10-21T16:51:03.816Z,11.20
2022-10-21T16:53:35.542Z,10.60
2022-10-21T16:56:07.905Z,12.30
2022-10-21T16:58:39.668Z,11.40
2022-10-21T17:01:16.046Z,12.90
2022-10-21T17:03:47.981Z,10.40
2022-10-21T17:06:22.857Z,9.53
2022-10-21T17:08:55.789Z,7.87
2022-10-21T17:11:37.053Z,10.17
2022-10-21T17:14:14.577Z,12.67
2022-10-21T17:16:46.682Z,13.93
2022-10-21T17:19:18.400Z,16.67
2022-10-21T17:21:50.207Z,15.10
2022-10-21T17:24:22.097Z,10.97
2022-10-21T17:26:56.093Z,14.70
2022-10-21T17:29:27.830Z,13.93
2022-10-21T17:31:59.547Z,8.33
2022-10-21T17:34:34.694Z,14.90
2022-10-21T17:37:08.303Z,9.23
2022-10-21T17:39:40.870Z,13.10
2022-10-21T17:42:19.252Z,10.27
2022-10-21T17:44:50.953Z,8.17
2022-10-21T17:47:22.666Z,10.23
2022-10-21T17:49:54.375Z,10.77
2022-10-21T17:52:26.081Z,10.23
2022-10-21T17:54:57.806Z,10.80
2022-10-21T17:57:32.953Z,10.37
2022-10-21T18:00:05.363Z,9.73
2022-10-21T18:02:37.743Z,12.10
2022-10-21T18:05:10.730Z,10.27
2022-10-21T18:07:42.569Z,13.03
2022-10-21T18:10:14.408Z,10.43
2022-10-21T18:12:46.206Z,12.43
2022-10-21T18:15:18.068Z,11.00
2022-10-21T18:17:49.844Z,11.13
2022-10-21T18:20:21.581Z,10.90
2022-10-21T18:22:53.348Z,11.63
2022-10-21T18:25:25.054Z,11.03
2022-10-21T18:27:56.769Z,10.47
2022-10-21T18:30:28.484Z,15.00
2022-10-21T18:33:00.419Z,12.10
2022-10-21T18:35:32.184Z,10.60
2022-10-21T18:38:04.160Z,11.20
2022-10-21T18:40:39.578Z,14.57
2022-10-21T18:43:13.354Z,20.03
2022-10-21T18:45:45.979Z,12.80
2022-10-21T18:48:17.795Z,11.77
2022-10-21T18:50:49.513Z,12.57
2022-10-21T18:53:21.508Z,11.43
2022-10-21T18:55:53.224Z,16.80
2022-10-21T18:58:25.003Z,10.80
2022-10-21T19:00:56.757Z,12.20
2022-10-21T19:03:28.550Z,14.47
2022-10-21T19:06:38.214Z,17.03
2022-10-21T19:09:22.515Z,11.40
2022-10-21T19:11:54.337Z,12.23
2022-10-21T19:14:26.049Z,10.23
2022-10-21T19:16:57.767Z,11.97
2022-10-21T19:19:29.537Z,15.57
2022-10-21T19:22:01.433Z,14.83
2022-10-21T19:24:33.230Z,18.07
2022-10-21T19:27:05.390Z,15.27
2022-10-21T19:29:37.216Z,11.50
2022-10-21T19:32:09.224Z,14.33
2022-10-21T19:34:41.061Z,12.87
2022-10-21T19:37:13.277Z,13.30
2022-10-21T19:39:44.986Z,14.53
2022-10-21T19:42:16.683Z,13.00
2022-10-21T19:44:48.526Z,11.13
2022-10-21T19:47:20.228Z,14.13
2022-10-21T19:49:51.959Z,15.80
2022-10-21T19:52:23.686Z,18.47
2022-10-21T19:54:55.404Z,11.83
2022-10-21T19:57:27.148Z,12.23
2022-10-21T19:59:58.844Z,12.87
2022-10-21T20:02:30.567Z,12.30
2022-10-21T20:05:02.343Z,16.80
2022-10-21T20:07:38.227Z,13.40
2022-10-21T20:10:10.317Z,12.27
2022-10-21T20:12:42.701Z,15.87
2022-10-21T20:15:14.435Z,16.10
2022-10-21T20:17:46.184Z,17.70
2022-10-21T20:20:18.167Z,12.00
2022-10-21T20:22:49.920Z,14.63
2022-10-21T20:25:21.632Z,11.33
2022-10-21T20:27:53.381Z,16.47
2022-10-21T20:30:25.085Z,17.87
2022-10-21T20:32:56.796Z,13.13
2022-10-21T20:35:28.535Z,16.27
2022-10-21T20:38:00.261Z,15.67
2022-10-21T20:40:32.056Z,16.30
2022-10-21T20:43:03.883Z,16.20
2022-10-21T20:45:35.669Z,14.47
2022-10-21T20:48:07.401Z,13.13
2022-10-21T20:50:39.219Z,14.93
2022-10-21T20:53:11.089Z,14.23
2022-10-21T20:55:43.767Z,11.90
2022-10-21T20:58:15.486Z,13.83
2022-10-21T21:00:47.266Z,12.27
2022-10-21T21:03:19.401Z,16.27
2022-10-21T21:05:51.111Z,14.03
2022-10-21T21:08:22.820Z,15.87
2022-10-21T21:10:59.139Z,14.50
2022-10-21T21:13:30.894Z,15.77
2022-10-21T21:16:07.912Z,13.60
2022-10-21T21:18:42.716Z,16.47
2022-10-21T21:21:16.322Z,17.70
2022-10-21T21:23:48.906Z,14.77
2022-10-21T21:26:21.844Z,13.37
2022-10-21T21:28:54.147Z,14.80
2022-10-21T21:31:27.539Z,13.63
2022-10-21T21:33:59.791Z,13.53
2022-10-21T21:36:31.910Z,13.90
2022-10-21T21:39:05.241Z,13.63
2022-10-21T21:41:38.085Z,13.97
2022-10-21T21:44:09.801Z,12.70
2022-10-21T21:46:41.542Z,12.97
2022-10-21T21:49:13.343Z,11.70
2022-10-21T21:51:45.068Z,11.63
2022-10-21T21:54:16.845Z,14.20
2022-10-21T21:56:50.200Z,16.63
2022-10-21T21:59:23.977Z,13.87
2022-10-21T22:01:55.691Z,13.53
2022-10-21T22:04:27.408Z,15.77
2022-10-21T22:07:02.007Z,16.53
2022-10-21T22:09:34.767Z,11.53
2022-10-21T22:12:06.492Z,13.87
2022-10-21T22:14:38.209Z,13.30
2022-10-21T22:17:09.955Z,14.60
2022-10-21T22:19:41.675Z,12.40
2022-10-21T22:22:13.401Z,15.03
2022-10-21T22:24:45.979Z,19.50
2022-10-21T22:27:18.257Z,14.83
2022-10-21T22:29:50.159Z,15.70
2022-10-21T22:32:21.882Z,13.60
2022-10-21T22:34:53.597Z,13.90
2022-10-21T22:37:25.441Z,15.53
2022-10-21T22:39:57.157Z,13.00
2022-10-21T22:42:28.863Z,14.47
2022-10-21T22:45:00.646Z,14.67
2022-10-21T22:47:32.398Z,14.37
2022-10-21T22:50:04.480Z,13.03
2022-10-21T22:52:36.249Z,13.10
2022-10-21T22:55:08.409Z,14.13
2022-10-21T22:57:40.225Z,13.80
2022-10-21T23:00:12.681Z,12.53
2022-10-21T23:02:44.403Z,14.37
2022-10-21T23:05:16.280Z,14.03
2022-10-21T23:07:48.010Z,15.90
2022-10-21T23:10:19.740Z,15.90
2022-10-21T23:12:51.460Z,15.63
2022-10-21T23:15:23.201Z,15.13
2022-10-21T23:17:54.985Z,14.40
2022-10-21T23:20:26.875Z,13.27
2022-10-21T23:22:58.964Z,15.20
2022-10-21T23:25:30.903Z,14.83
2022-10-21T23:28:03.770Z,15.13
2022-10-21T23:30:36.582Z,14.23
2022-10-21T23:33:08.296Z,12.60
2022-10-21T23:35:40.165Z,14.10
2022-10-21T23:38:11.993Z,14.57
2022-10-21T23:40:43.869Z,19.13
2022-10-21T23:43:15.653Z,13.20
2022-10-21T23:45:48.897Z,13.37
2022-10-21T23:48:20.738Z,12.57
2022-10-21T23:50:52.505Z,14.47
2022-10-21T23:53:24.252Z,19.07
2022-10-21T23:55:56.027Z,13.53
2022-10-21T23:58:27.780Z,15.37
